Time;durP1;ratioP1;P1;durP2;ratioP2;P2;SDS_P1;SDS_P2;PMS_P1;PMS_P2;Temp;Humidity;BMP_temperature;BMP_pressure;BME280_temperature;BME280_humidity;BME280_pressure;Samples;Min_cycle;Max_cycle;Signal;HPM_P1;HPM_P2
2022/12/26 00:02:05;;;;;;;4.32;2.65;;;;;;;;;;5034008;28;20067;-82
2022/12/26 00:04:33;;;;;;;5.45;2.65;;;;;;;;;;5018742;28;20025;-82
2022/12/26 00:06:58;;;;;;;5.03;2.80;;;;;;;;;;5024816;28;20040;-82
2022/12/26 00:09:24;;;;;;;5.38;3.00;;;;;;;;;;5056473;28;20029;-81
2022/12/26 00:11:52;;;;;;;3.85;2.70;;;;;;;;;;5051398;28;20043;-80
2022/12/26 00:14:17;;;;;;;4.95;3.00;;;;;;;;;;5051614;28;20032;-81
2022/12/26 00:16:46;;;;;;;3.40;2.60;;;;;;;;;;5033811;28;20145;-81
2022/12/26 00:19:11;;;;;;;4.28;2.58;;;;;;;;;;5035246;28;20455;-81
2022/12/26 00:21:37;;;;;;;5.18;2.95;;;;;;;;;;5018518;28;20040;-82
2022/12/26 00:24:02;;;;;;;6.28;2.85;;;;;;;;;;5035728;28;20079;-81
2022/12/26 00:26:29;;;;;;;3.95;2.70;;;;;;;;;;5034338;28;20036;-81
2022/12/26 00:28:55;;;;;;;4.15;2.70;;;;;;;;;;5039634;28;20021;-81
2022/12/26 00:31:23;;;;;;;4.18;2.95;;;;;;;;;;5033440;28;20043;-81
2022/12/26 00:33:49;;;;;;;4.18;2.85;;;;;;;;;;5013893;28;20029;-81
2022/12/26 00:36:16;;;;;;;3.85;2.90;;;;;;;;;;5031969;28;20439;-81
2022/12/26 00:38:42;;;;;;;4.57;3.10;;;;;;;;;;5056929;28;20025;-81
2022/12/26 00:43:51;;;;;;;5.82;3.50;;;;;;;;;;5051521;28;20049;-82
2022/12/26 00:46:17;;;;;;;5.82;3.92;;;;;;;;;;5033684;28;20079;-81
2022/12/26 00:48:43;;;;;;;5.40;3.88;;;;;;;;;;5051474;28;20041;-81
2022/12/26 00:51:08;;;;;;;5.50;3.85;;;;;;;;;;5051219;28;20035;-82
2022/12/26 00:53:35;;;;;;;4.43;3.40;;;;;;;;;;5039606;28;20116;-80
2022/12/26 00:56:04;;;;;;;5.38;3.67;;;;;;;;;;5039012;28;20112;-82
2022/12/26 01:01:13;;;;;;;4.97;3.47;;;;;;;;;;5045525;28;20059;-81
2022/12/26 01:03:41;;;;;;;4.88;2.92;;;;;;;;;;5043460;28;20024;-82
2022/12/26 01:06:07;;;;;;;4.20;2.70;;;;;;;;;;5050109;28;20029;-82
2022/12/26 01:08:32;;;;;;;4.65;3.08;;;;;;;;;;5035615;28;20025;-82
2022/12/26 01:11:01;;;;;;;5.30;2.50;;;;;;;;;;5053460;28;20518;-82
2022/12/26 01:13:26;;;;;;;3.35;2.53;;;;;;;;;;5045825;28;20037;-80
2022/12/26 01:15:52;;;;;;;3.95;2.60;;;;;;;;;;5032467;28;20029;-80
2022/12/26 01:18:17;;;;;;;4.50;2.80;;;;;;;;;;5032682;28;20041;-81
2022/12/26 01:20:43;;;;;;;4.38;3.10;;;;;;;;;;5032842;28;20504;-81
2022/12/26 01:23:08;;;;;;;4.55;3.20;;;;;;;;;;5050325;28;20095;-81
2022/12/26 01:25:34;;;;;;;4.57;3.30;;;;;;;;;;5052210;28;20036;-81
2022/12/26 01:27:59;;;;;;;5.32;3.55;;;;;;;;;;5023320;28;20036;-81
2022/12/26 01:30:25;;;;;;;5.43;3.45;;;;;;;;;;5020339;28;20060;-81
2022/12/26 01:32:50;;;;;;;4.68;3.50;;;;;;;;;;5054440;28;20052;-81
2022/12/26 01:35:16;;;;;;;6.75;3.45;;;;;;;;;;5053698;28;20127;-81
2022/12/26 01:37:41;;;;;;;5.28;3.15;;;;;;;;;;5053956;28;20447;-81
2022/12/26 01:40:07;;;;;;;5.00;3.50;;;;;;;;;;5036558;28;20029;-80
2022/12/26 01:42:36;;;;;;;6.97;3.90;;;;;;;;;;5036009;28;20043;-82
2022/12/26 01:45:21;;;;;;;5.47;3.90;;;;;;;;;;5063818;28;20029;-82
2022/12/26 01:47:58;;;;;;;5.70;3.85;;;;;;;;;;5053799;28;20044;-81
2022/12/26 01:50:23;;;;;;;6.40;4.20;;;;;;;;;;5020163;28;20047;-80
2022/12/26 01:52:49;;;;;;;7.38;4.03;;;;;;;;;;5054962;28;20021;-80
2022/12/26 01:55:15;;;;;;;8.95;4.63;;;;;;;;;;5053368;28;20037;-80
2022/12/26 01:57:41;;;;;;;8.50;4.35;;;;;;;;;;5036391;28;20086;-81
2022/12/26 02:00:06;;;;;;;;;;;;;;;;;;5035901;28;20036;-81
2022/12/26 02:05:35;;;;;;;6.53;4.28;;;;;;;;;;5033280;28;20034;-80
2022/12/26 02:08:20;;;;;;;5.53;3.97;;;;;;;;;;5045648;28;20029;-80
2022/12/26 02:11:06;;;;;;;6.45;4.10;;;;;;;;;;5037223;28;20033;-80
2022/12/26 02:13:33;;;;;;;11.10;6.55;;;;;;;;;;5056599;28;20515;-81
2022/12/26 02:15:58;;;;;;;6.47;4.35;;;;;;;;;;5039521;28;20538;-80
2022/12/26 02:18:24;;;;;;;5.70;4.13;;;;;;;;;;5039485;28;20045;-81
2022/12/26 02:21:19;;;;;;;7.47;4.47;;;;;;;;;;5039703;28;20037;-80
2022/12/26 02:24:03;;;;;;;5.88;4.18;;;;;;;;;;4948076;28;20142;-81
2022/12/26 02:26:47;;;;;;;6.32;4.28;;;;;;;;;;5039043;28;20069;-81
2022/12/26 02:29:25;;;;;;;6.60;4.13;;;;;;;;;;5029617;28;20120;-80
2022/12/26 02:32:09;;;;;;;7.13;4.75;;;;;;;;;;5041354;28;20115;-81
2022/12/26 02:34:38;;;;;;;6.13;4.65;;;;;;;;;;5039642;28;20129;-81
2022/12/26 02:37:12;;;;;;;7.03;4.93;;;;;;;;;;5069904;28;20020;-80
2022/12/26 02:39:40;;;;;;;8.05;4.45;;;;;;;;;;5068414;28;20032;-82
2022/12/26 02:42:29;;;;;;;8.40;5.07;;;;;;;;;;5043637;28;20036;-81
2022/12/26 02:47:48;;;;;;;10.57;6.80;;;;;;;;;;5059312;28;20515;-82
2022/12/26 03:17:18;;;;;;;10.38;6.22;;;;;;;;;;5054753;28;20517;-82
2022/12/26 03:18:19;;;;;;;10.88;6.25;;;;;;;;;;5038297;28;20043;-82
2022/12/26 03:20:45;;;;;;;10.23;6.60;;;;;;;;;;5035751;28;20482;-81
2022/12/26 03:23:12;;;;;;;10.45;6.53;;;;;;;;;;5035447;28;20237;-81
2022/12/26 03:28:23;;;;;;;10.40;6.45;;;;;;;;;;5038349;28;20040;-82
2022/12/26 03:30:49;;;;;;;11.05;6.70;;;;;;;;;;5044596;28;20791;-81
2022/12/26 03:36:00;;;;;;;11.13;7.07;;;;;;;;;;5055755;28;20037;-80
2022/12/26 03:38:29;;;;;;;9.57;6.78;;;;;;;;;;5051761;28;20032;-81
2022/12/26 04:20:09;;;;;;;10.50;7.50;;;;;;;;;;5058549;28;19923;-81
2022/12/26 04:44:53;;;;;;;9.27;5.68;;;;;;;;;;5046371;28;20033;-82
2022/12/26 04:47:19;;;;;;;9.73;6.47;;;;;;;;;;5032671;28;20017;-82
2022/12/26 04:52:53;;;;;;;7.43;5.50;;;;;;;;;;5052130;28;20033;-82
2022/12/26 04:55:14;;;;;;;23.23;11.88;;;;;;;;;;5026784;28;20045;-82
2022/12/26 04:57:40;;;;;;;7.78;5.72;;;;;;;;;;5041842;28;20052;-80
2022/12/26 05:00:05;;;;;;;8.23;5.10;;;;;;;;;;5068725;28;20220;-81
2022/12/26 05:10:43;;;;;;;6.60;4.30;;;;;;;;;;5052604;28;20101;-82
2022/12/26 05:13:08;;;;;;;5.95;4.05;;;;;;;;;;5068420;28;20028;-81
2022/12/26 05:28:40;;;;;;;6.20;4.47;;;;;;;;;;5045265;28;20032;-81
2022/12/26 05:29:17;;;;;;;6.13;4.15;;;;;;;;;;5049350;28;20123;-82
2022/12/26 05:31:43;;;;;;;8.07;4.25;;;;;;;;;;5034964;28;20104;-82
2022/12/26 05:34:11;;;;;;;6.40;4.13;;;;;;;;;;5059196;28;20060;-82
2022/12/26 05:36:37;;;;;;;12.80;7.57;;;;;;;;;;5038028;28;20070;-80
2022/12/26 05:39:03;;;;;;;7.90;4.22;;;;;;;;;;5054710;28;20503;-82
2022/12/26 05:41:28;;;;;;;7.80;4.75;;;;;;;;;;5055308;28;20119;-83
2022/12/26 05:43:54;;;;;;;8.50;4.80;;;;;;;;;;5036858;28;20408;-82
2022/12/26 05:46:19;;;;;;;6.60;4.47;;;;;;;;;;5054484;28;20053;-82
2022/12/26 05:48:45;;;;;;;8.20;4.57;;;;;;;;;;5055081;28;20037;-83
2022/12/26 05:51:10;;;;;;;6.40;4.30;;;;;;;;;;5022477;28;20389;-83
2022/12/26 05:53:36;;;;;;;6.13;3.80;;;;;;;;;;5057862;28;20407;-83
2022/12/26 05:56:05;;;;;;;6.70;4.03;;;;;;;;;;5055998;28;20033;-82
2022/12/26 05:58:30;;;;;;;9.02;4.05;;;;;;;;;;5026250;28;20032;-84
2022/12/26 06:01:06;;;;;;;7.38;4.72;;;;;;;;;;5040345;28;20027;-82
2022/12/26 06:03:32;;;;;;;7.78;4.40;;;;;;;;;;5053382;28;20127;-83
2022/12/26 06:05:58;;;;;;;6.72;4.40;;;;;;;;;;5035418;28;20043;-83
2022/12/26 06:08:23;;;;;;;6.53;4.20;;;;;;;;;;5055683;28;20127;-82
2022/12/26 06:10:48;;;;;;;5.90;4.22;;;;;;;;;;5040924;28;20036;-83
2022/12/26 06:13:14;;;;;;;9.65;3.88;;;;;;;;;;5057584;28;20484;-82
2022/12/26 06:15:39;;;;;;;6.13;3.47;;;;;;;;;;5066015;28;20106;-82
2022/12/26 06:20:49;;;;;;;5.68;4.00;;;;;;;;;;5049954;28;20110;-83
2022/12/26 06:23:14;;;;;;;7.07;4.13;;;;;;;;;;5053016;28;20037;-83
2022/12/26 06:25:40;;;;;;;9.63;4.03;;;;;;;;;;5034806;28;20036;-82
2022/12/26 06:28:05;;;;;;;12.27;7.13;;;;;;;;;;5034877;28;20132;-82
2022/12/26 06:30:31;;;;;;;11.10;6.10;;;;;;;;;;5052833;28;20052;-82
2022/12/26 06:32:56;;;;;;;6.53;3.95;;;;;;;;;;5034822;28;20029;-83
2022/12/26 06:35:22;;;;;;;8.82;5.18;;;;;;;;;;5034262;28;20036;-81
2022/12/26 06:37:47;;;;;;;7.70;4.47;;;;;;;;;;5017952;28;20029;-83
2022/12/26 06:40:13;;;;;;;7.03;4.47;;;;;;;;;;5052142;28;20460;-83
2022/12/26 06:42:38;;;;;;;7.25;4.00;;;;;;;;;;5036321;28;20071;-83
2022/12/26 06:45:04;;;;;;;6.88;3.90;;;;;;;;;;5035453;28;20079;-81
2022/12/26 06:50:13;;;;;;;6.50;3.72;;;;;;;;;;5052767;28;20032;-83
2022/12/26 06:52:38;;;;;;;6.10;4.00;;;;;;;;;;5018724;28;20028;-83
2022/12/26 06:55:04;;;;;;;6.95;3.70;;;;;;;;;;5052787;28;20075;-82
2022/12/26 06:57:30;;;;;;;8.15;4.28;;;;;;;;;;5036232;28;20549;-82
2022/12/26 06:59:55;;;;;;;8.93;5.10;;;;;;;;;;5052305;28;20060;-84
2022/12/26 07:02:21;;;;;;;9.95;4.97;;;;;;;;;;5053098;28;20037;-83
2022/12/26 07:04:46;;;;;;;6.35;4.45;;;;;;;;;;5053198;28;20533;-82
2022/12/26 07:07:11;;;;;;;9.52;4.47;;;;;;;;;;5056584;28;20450;-82
2022/12/26 07:09:37;;;;;;;7.63;4.80;;;;;;;;;;5036715;28;20059;-83
2022/12/26 07:12:02;;;;;;;10.48;5.38;;;;;;;;;;5021995;28;20074;-82
2022/12/26 07:17:12;;;;;;;9.25;5.55;;;;;;;;;;5043562;28;20052;-83
2022/12/26 07:19:37;;;;;;;9.43;5.78;;;;;;;;;;5037405;28;20561;-83
2022/12/26 07:22:03;;;;;;;9.10;6.45;;;;;;;;;;5041522;28;20066;-83
2022/12/26 07:24:28;;;;;;;8.85;5.90;;;;;;;;;;5055326;28;20037;-83
2022/12/26 07:26:54;;;;;;;8.48;6.53;;;;;;;;;;5041939;28;20078;-84
2022/12/26 07:32:03;;;;;;;18.02;8.23;;;;;;;;;;5052820;28;20067;-83
2022/12/26 07:37:12;;;;;;;11.38;7.78;;;;;;;;;;5057829;28;20106;-82
2022/12/26 07:39:38;;;;;;;11.02;7.90;;;;;;;;;;5058172;28;20024;-83
2022/12/26 07:42:03;;;;;;;13.85;9.00;;;;;;;;;;5057529;28;20045;-83
2022/12/26 07:44:31;;;;;;;11.13;8.32;;;;;;;;;;5059429;28;20542;-82
2022/12/26 07:46:57;;;;;;;15.50;8.82;;;;;;;;;;5041670;28;20071;-84
2022/12/26 07:52:07;;;;;;;13.43;8.00;;;;;;;;;;5056666;28;19912;-82
2022/12/26 07:54:32;;;;;;;11.27;8.35;;;;;;;;;;5056234;28;20028;-82
2022/12/26 07:56:58;;;;;;;12.45;9.27;;;;;;;;;;5056861;28;20480;-82
2022/12/26 07:59:23;;;;;;;14.65;9.70;;;;;;;;;;5020061;28;20063;-82
2022/12/26 08:01:49;;;;;;;13.95;9.65;;;;;;;;;;5055832;28;20036;-81
2022/12/26 08:04:14;;;;;;;12.82;9.23;;;;;;;;;;5057221;28;20484;-82
2022/12/26 08:06:40;;;;;;;13.07;9.32;;;;;;;;;;5050913;28;20546;-83
2022/12/26 08:09:05;;;;;;;14.35;9.07;;;;;;;;;;5038785;28;20476;-82
2022/12/26 08:11:32;;;;;;;13.95;9.63;;;;;;;;;;5053334;28;20063;-83
2022/12/26 08:13:57;;;;;;;18.30;10.60;;;;;;;;;;5055444;28;20094;-83
2022/12/26 08:19:07;;;;;;;12.77;9.20;;;;;;;;;;5051149;28;20115;-82
2022/12/26 08:21:32;;;;;;;12.30;8.80;;;;;;;;;;5053134;28;20121;-84
2022/12/26 08:23:58;;;;;;;12.80;8.60;;;;;;;;;;5038121;28;20118;-82
2022/12/26 08:26:23;;;;;;;13.82;9.35;;;;;;;;;;5053230;28;20029;-83
2022/12/26 08:28:49;;;;;;;13.88;9.38;;;;;;;;;;5055998;28;20083;-83
2022/12/26 08:31:15;;;;;;;13.25;8.93;;;;;;;;;;5032154;28;20536;-83
2022/12/26 08:33:40;;;;;;;13.57;9.38;;;;;;;;;;5036272;28;20124;-83
2022/12/26 08:36:07;;;;;;;13.60;9.65;;;;;;;;;;5019253;28;20400;-83
2022/12/26 08:38:32;;;;;;;17.42;10.95;;;;;;;;;;5039018;28;20041;-84
2022/12/26 08:40:58;;;;;;;11.05;8.45;;;;;;;;;;5019263;28;20028;-83
2022/12/26 08:43:23;;;;;;;11.73;8.57;;;;;;;;;;5039381;28;20041;-82
2022/12/26 08:45:59;;;;;;;11.95;7.13;;;;;;;;;;5035849;28;20079;-83
2022/12/26 08:48:24;;;;;;;11.40;7.43;;;;;;;;;;5033134;28;20082;-83
2022/12/26 08:59:09;;;;;;;10.23;7.53;;;;;;;;;;5040950;28;20408;-83
2022/12/26 09:01:34;;;;;;;12.38;7.95;;;;;;;;;;5055614;28;20033;-83
2022/12/26 09:04:01;;;;;;;10.32;6.65;;;;;;;;;;5054529;28;20028;-84
2022/12/26 09:06:26;;;;;;;10.20;7.68;;;;;;;;;;5039756;28;20021;-83
2022/12/26 09:08:52;;;;;;;11.98;8.07;;;;;;;;;;5049945;28;20036;-83
2022/12/26 09:14:02;;;;;;;11.02;7.30;;;;;;;;;;5048248;28;20033;-83
2022/12/26 09:16:32;;;;;;;11.20;7.10;;;;;;;;;;5031791;28;20044;-83
2022/12/26 09:18:58;;;;;;;10.00;7.00;;;;;;;;;;5032199;28;20033;-83
2022/12/26 09:21:24;;;;;;;12.38;8.43;;;;;;;;;;5032266;28;20033;-83
2022/12/26 09:23:49;;;;;;;10.98;7.40;;;;;;;;;;5031782;28;20040;-83
2022/12/26 09:26:18;;;;;;;12.27;8.00;;;;;;;;;;5049621;28;20454;-83
2022/12/26 09:28:45;;;;;;;10.48;7.30;;;;;;;;;;5049555;28;20040;-83
2022/12/26 09:31:14;;;;;;;10.57;7.40;;;;;;;;;;5049850;28;20393;-83
2022/12/26 09:33:39;;;;;;;9.65;6.68;;;;;;;;;;5028359;28;20032;-83
2022/12/26 09:36:09;;;;;;;9.98;6.95;;;;;;;;;;5032265;28;20040;-82
2022/12/26 09:38:35;;;;;;;9.55;7.32;;;;;;;;;;5015834;28;20122;-83
2022/12/26 09:41:00;;;;;;;13.80;8.48;;;;;;;;;;5032748;28;20480;-83
2022/12/26 09:44:01;;;;;;;11.57;8.48;;;;;;;;;;5050687;28;20250;-82
2022/12/26 09:49:16;;;;;;;17.58;9.52;;;;;;;;;;5048967;28;20048;-83
2022/12/26 09:51:43;;;;;;;15.30;8.90;;;;;;;;;;5043666;28;20032;-83
2022/12/26 09:54:13;;;;;;;16.33;9.18;;;;;;;;;;5036401;28;20040;-83
2022/12/26 09:56:38;;;;;;;11.45;8.13;;;;;;;;;;5019282;28;20443;-83
2022/12/26 09:59:04;;;;;;;;;;;;;;;;;;5056228;28;20048;-82
2022/12/26 10:01:33;;;;;;;13.77;8.52;;;;;;;;;;5056586;28;20272;-83
2022/12/26 10:03:59;;;;;;;11.68;7.78;;;;;;;;;;5022814;28;20033;-82
2022/12/26 10:06:25;;;;;;;12.63;8.00;;;;;;;;;;5021423;28;20030;-82
2022/12/26 10:08:51;;;;;;;;;;;;;;;;;;5020072;28;20060;-83
2022/12/26 10:11:36;;;;;;;19.70;8.63;;;;;;;;;;5054963;28;19912;-83
2022/12/26 10:14:20;;;;;;;14.73;8.90;;;;;;;;;;5037338;28;20159;-84
2022/12/26 10:17:19;;;;;;;12.02;8.15;;;;;;;;;;5025909;28;20451;-82
2022/12/26 10:19:45;;;;;;;11.80;8.50;;;;;;;;;;5015855;28;20079;-84
2022/12/26 10:22:28;;;;;;;14.40;8.38;;;;;;;;;;5053326;28;20025;-83
2022/12/26 10:24:54;;;;;;;12.10;8.48;;;;;;;;;;5035481;28;20037;-82
2022/12/26 10:27:21;;;;;;;16.15;8.02;;;;;;;;;;5018970;28;20021;-84
2022/12/26 10:29:51;;;;;;;13.27;7.70;;;;;;;;;;5036403;28;20028;-83
2022/12/26 10:32:20;;;;;;;12.98;7.40;;;;;;;;;;5034745;28;20052;-82
2022/12/26 10:34:47;;;;;;;16.33;8.40;;;;;;;;;;5018548;28;20041;-83
2022/12/26 10:37:12;;;;;;;;;;;;;;;;;;5052558;28;20032;-83
2022/12/26 10:39:50;;;;;;;16.77;7.60;;;;;;;;;;5053050;28;19913;-84
2022/12/26 10:42:34;;;;;;;12.60;8.27;;;;;;;;;;5018916;28;20040;-83
2022/12/26 10:44:59;;;;;;;13.77;8.45;;;;;;;;;;5053224;28;20037;-83
2022/12/26 10:47:25;;;;;;;14.43;8.65;;;;;;;;;;5047587;28;20025;-82
2022/12/26 10:49:51;;;;;;;11.60;7.95;;;;;;;;;;5035897;28;20507;-82
2022/12/26 10:52:17;;;;;;;14.70;8.73;;;;;;;;;;5052379;28;20025;-83
2022/12/26 10:54:42;;;;;;;;;;;;;;;;;;5018911;28;20458;-82
2022/12/26 10:57:08;;;;;;;14.25;8.18;;;;;;;;;;5063449;28;20007;-84
2022/12/26 10:59:43;;;;;;;13.27;7.93;;;;;;;;;;5053256;28;20037;-83
2022/12/26 11:02:27;;;;;;;15.77;8.55;;;;;;;;;;5033923;28;20037;-83
2022/12/26 11:05:06;;;;;;;14.68;8.82;;;;;;;;;;5014696;28;20063;-83
2022/12/26 11:07:33;;;;;;;12.70;8.32;;;;;;;;;;5032861;28;20029;-83
2022/12/26 11:09:59;;;;;;;12.65;8.20;;;;;;;;;;5017917;28;20033;-82
2022/12/26 11:12:49;;;;;;;13.60;8.88;;;;;;;;;;5051772;28;20040;-83
2022/12/26 11:15:20;;;;;;;13.00;8.70;;;;;;;;;;5051534;28;20037;-84
2022/12/26 11:17:46;;;;;;;12.57;8.73;;;;;;;;;;5034104;28;20503;-83
2022/12/26 11:20:14;;;;;;;14.23;8.77;;;;;;;;;;5053983;28;20052;-83
2022/12/26 11:22:40;;;;;;;13.30;8.75;;;;;;;;;;5054368;28;20037;-84
2022/12/26 11:25:08;;;;;;;13.45;8.30;;;;;;;;;;5057333;28;20449;-84
2022/12/26 11:27:34;;;;;;;12.02;8.32;;;;;;;;;;5037303;28;20064;-83
2022/12/26 11:30:16;;;;;;;17.83;8.98;;;;;;;;;;5040011;28;20044;-83
2022/12/26 11:32:42;;;;;;;12.45;7.82;;;;;;;;;;5036987;28;20110;-83
2022/12/26 11:38:01;;;;;;;12.82;7.88;;;;;;;;;;5054316;28;20473;-84
2022/12/26 11:43:16;;;;;;;13.00;7.50;;;;;;;;;;5039157;28;20647;-83
2022/12/26 11:45:42;;;;;;;10.30;7.07;;;;;;;;;;5037071;28;20036;-83
2022/12/26 11:48:23;;;;;;;10.10;7.13;;;;;;;;;;5023101;28;20041;-84
2022/12/26 11:50:49;;;;;;;12.43;7.40;;;;;;;;;;5029878;28;20041;-84
2022/12/26 11:53:16;;;;;;;12.73;7.30;;;;;;;;;;5054758;28;20599;-84
2022/12/26 11:55:42;;;;;;;16.67;6.32;;;;;;;;;;5056278;28;20040;-83
2022/12/26 11:58:07;;;;;;;8.48;5.82;;;;;;;;;;5038473;28;20051;-85
2022/12/26 12:00:33;;;;;;;8.05;6.20;;;;;;;;;;5051048;28;20041;-84
2022/12/26 12:02:59;;;;;;;8.20;6.05;;;;;;;;;;5033579;28;20044;-82
2022/12/26 12:05:25;;;;;;;8.90;5.50;;;;;;;;;;5032402;28;20033;-83
2022/12/26 12:07:56;;;;;;;10.23;6.72;;;;;;;;;;5054775;28;20116;-83
2022/12/26 12:10:30;;;;;;;9.50;5.93;;;;;;;;;;5050682;28;20535;-83
2022/12/26 12:12:59;;;;;;;9.50;6.07;;;;;;;;;;5041699;28;20041;-84
2022/12/26 12:15:27;;;;;;;10.15;5.57;;;;;;;;;;5034294;28;20039;-82
2022/12/26 12:20:57;;;;;;;8.32;5.20;;;;;;;;;;5053440;28;20408;-82
2022/12/26 12:23:49;;;;;;;8.25;5.40;;;;;;;;;;5040076;28;20033;-83
2022/12/26 12:26:21;;;;;;;7.57;5.45;;;;;;;;;;5018899;28;20045;-82
2022/12/26 12:29:13;;;;;;;7.95;5.10;;;;;;;;;;5033224;28;20032;-82
2022/12/26 12:31:38;;;;;;;7.15;5.15;;;;;;;;;;5005926;28;20051;-82
2022/12/26 12:34:10;;;;;;;10.13;5.82;;;;;;;;;;5038731;28;20431;-83
2022/12/26 12:36:39;;;;;;;7.97;5.10;;;;;;;;;;5041052;28;20052;-83
2022/12/26 12:39:04;;;;;;;11.35;5.07;;;;;;;;;;5054487;28;20064;-84
2022/12/26 12:41:33;;;;;;;7.38;4.60;;;;;;;;;;5059709;28;20060;-84
2022/12/26 12:44:03;;;;;;;9.52;5.07;;;;;;;;;;5056562;28;20071;-83
2022/12/26 12:46:54;;;;;;;10.48;5.70;;;;;;;;;;5043878;28;20504;-83
2022/12/26 12:49:52;;;;;;;9.55;5.07;;;;;;;;;;5055539;28;20400;-83
2022/12/26 12:52:36;;;;;;;7.78;5.25;;;;;;;;;;4997197;28;20045;-84
2022/12/26 12:55:22;;;;;;;9.60;5.43;;;;;;;;;;5043594;28;20076;-84
2022/12/26 12:58:03;;;;;;;10.03;5.63;;;;;;;;;;5045356;28;20036;-83
2022/12/26 13:00:40;;;;;;;8.13;5.22;;;;;;;;;;5059799;28;20288;-83
2022/12/26 13:03:10;;;;;;;9.40;5.50;;;;;;;;;;5047290;28;20060;-83
2022/12/26 13:05:39;;;;;;;9.57;5.70;;;;;;;;;;5032298;28;20071;-83
2022/12/26 13:08:10;;;;;;;8.15;5.70;;;;;;;;;;5050032;28;20037;-83
2022/12/26 13:10:37;;;;;;;6.97;4.82;;;;;;;;;;5032497;28;20035;-83
2022/12/26 13:13:18;;;;;;;10.13;5.70;;;;;;;;;;5032399;28;20032;-83
2022/12/26 13:15:44;;;;;;;9.60;5.57;;;;;;;;;;5031884;28;20485;-82
2022/12/26 13:18:16;;;;;;;7.93;5.15;;;;;;;;;;5036613;28;20562;-83
2022/12/26 13:20:52;;;;;;;8.95;5.85;;;;;;;;;;5045162;28;20570;-83
2022/12/26 13:26:42;;;;;;;9.57;5.53;;;;;;;;;;5052119;28;20047;-84
2022/12/26 13:29:11;;;;;;;8.52;6.18;;;;;;;;;;5058034;28;20036;-84
2022/12/26 13:31:37;;;;;;;10.98;6.00;;;;;;;;;;5067145;28;20021;-83
2022/12/26 13:34:02;;;;;;;9.70;5.53;;;;;;;;;;5044482;28;20032;-83
2022/12/26 13:36:34;;;;;;;8.18;5.82;;;;;;;;;;5049282;28;20039;-85
2022/12/26 13:39:01;;;;;;;10.55;6.25;;;;;;;;;;5043589;28;20499;-84
2022/12/26 13:44:17;;;;;;;9.68;6.47;;;;;;;;;;5051625;28;20057;-83
2022/12/26 13:46:45;;;;;;;10.98;7.30;;;;;;;;;;5069059;28;20045;-83
2022/12/26 13:49:43;;;;;;;10.98;6.60;;;;;;;;;;5067768;28;20032;-83
2022/12/26 13:52:14;;;;;;;10.65;6.57;;;;;;;;;;5018791;28;20052;-83
2022/12/26 13:54:46;;;;;;;11.60;6.50;;;;;;;;;;5046613;28;20461;-83
2022/12/26 13:57:20;;;;;;;7.78;5.82;;;;;;;;;;5047767;28;20081;-84
2022/12/26 13:59:49;;;;;;;10.40;5.68;;;;;;;;;;5046018;28;20481;-83
2022/12/26 14:02:17;;;;;;;11.13;5.68;;;;;;;;;;5034767;28;20028;-83
2022/12/26 14:04:46;;;;;;;8.98;5.43;;;;;;;;;;5059306;28;20116;-84
2022/12/26 14:07:17;;;;;;;7.90;5.53;;;;;;;;;;5038603;28;20029;-83
2022/12/26 14:10:03;;;;;;;7.70;5.00;;;;;;;;;;5057220;28;20036;-83
2022/12/26 14:12:34;;;;;;;8.05;4.70;;;;;;;;;;5035114;28;20037;-82
2022/12/26 14:18:02;;;;;;;9.15;5.50;;;;;;;;;;5053533;28;20131;-84
2022/12/26 14:20:35;;;;;;;7.68;5.03;;;;;;;;;;5039482;28;20071;-84
2022/12/26 14:23:19;;;;;;;9.88;5.70;;;;;;;;;;5059187;28;20078;-83
2022/12/26 14:26:04;;;;;;;10.57;5.30;;;;;;;;;;5055180;28;20064;-83
2022/12/26 14:28:31;;;;;;;10.32;4.85;;;;;;;;;;5057636;28;20147;-82
2022/12/26 14:31:16;;;;;;;8.05;5.18;;;;;;;;;;5035341;28;20049;-82
2022/12/26 14:33:59;;;;;;;8.55;5.00;;;;;;;;;;5018929;28;20039;-84
2022/12/26 14:40:00;;;;;;;8.98;4.90;;;;;;;;;;5013752;28;20044;-84
2022/12/26 14:45:33;;;;;;;8.93;5.10;;;;;;;;;;5037159;28;20032;-83
2022/12/26 14:47:58;;;;;;;7.00;4.70;;;;;;;;;;5051487;28;20052;-82
2022/12/26 14:50:41;;;;;;;6.25;4.93;;;;;;;;;;5035098;28;20500;-83
2022/12/26 14:53:27;;;;;;;9.90;4.85;;;;;;;;;;5045139;28;20033;-83
2022/12/26 14:56:23;;;;;;;5.88;4.22;;;;;;;;;;5034985;28;20128;-83
2022/12/26 14:58:52;;;;;;;8.20;4.40;;;;;;;;;;5051780;28;20072;-85
2022/12/26 15:01:20;;;;;;;7.10;4.45;;;;;;;;;;5034309;28;20040;-83
2022/12/26 15:06:51;;;;;;;8.07;3.80;;;;;;;;;;5047159;28;20037;-83
2022/12/26 15:09:32;;;;;;;10.40;4.07;;;;;;;;;;5053754;28;20120;-83
2022/12/26 15:12:16;;;;;;;4.93;3.38;;;;;;;;;;5062853;28;20032;-85
2022/12/26 15:15:00;;;;;;;7.97;4.00;;;;;;;;;;5063567;28;20102;-82
2022/12/26 15:17:33;;;;;;;7.22;3.97;;;;;;;;;;5050688;28;20052;-84
2022/12/26 15:20:19;;;;;;;5.70;3.95;;;;;;;;;;5019157;28;20044;-85
2022/12/26 15:22:57;;;;;;;5.88;4.00;;;;;;;;;;5020034;28;20075;-84
2022/12/26 15:25:41;;;;;;;7.28;3.90;;;;;;;;;;5048074;28;20028;-84
2022/12/26 15:28:16;;;;;;;5.38;3.72;;;;;;;;;;5065006;28;20029;-85
2022/12/26 15:30:44;;;;;;;7.60;4.30;;;;;;;;;;5043876;28;20025;-85
2022/12/26 15:33:22;;;;;;;8.00;4.20;;;;;;;;;;5068229;28;20028;-85
2022/12/26 15:35:49;;;;;;;6.22;4.28;;;;;;;;;;5063538;28;20047;-85
2022/12/26 15:38:30;;;;;;;7.72;3.92;;;;;;;;;;5044337;28;20396;-84
2022/12/26 15:41:14;;;;;;;10.27;5.95;;;;;;;;;;5065571;28;20028;-84
2022/12/26 15:46:47;;;;;;;7.70;4.45;;;;;;;;;;5044584;28;20526;-86
2022/12/26 15:49:12;;;;;;;7.72;4.30;;;;;;;;;;5039674;28;20086;-85
2022/12/26 15:51:57;;;;;;;7.50;4.43;;;;;;;;;;5063595;28;20100;-85
2022/12/26 15:54:34;;;;;;;8.32;4.60;;;;;;;;;;5036419;28;20036;-85
2022/12/26 15:57:09;;;;;;;6.15;4.20;;;;;;;;;;5053028;28;20044;-83
2022/12/26 15:59:50;;;;;;;5.80;3.92;;;;;;;;;;5053972;28;20439;-82
2022/12/26 16:02:25;;;;;;;7.40;4.47;;;;;;;;;;5032708;28;20029;-83
2022/12/26 16:04:52;;;;;;;7.75;4.45;;;;;;;;;;5056801;28;20504;-81
2022/12/26 16:07:33;;;;;;;6.95;4.43;;;;;;;;;;5035886;28;20043;-82
2022/12/26 16:09:58;;;;;;;6.07;4.03;;;;;;;;;;5054400;28;20834;-82
2022/12/26 16:12:24;;;;;;;6.60;3.85;;;;;;;;;;5057734;28;20028;-81
2022/12/26 16:14:58;;;;;;;5.80;3.80;;;;;;;;;;5019849;28;20048;-81
2022/12/26 16:17:24;;;;;;;6.70;3.67;;;;;;;;;;5055366;28;20132;-82
2022/12/26 16:19:50;;;;;;;7.10;3.83;;;;;;;;;;5037450;28;20060;-83
2022/12/26 16:24:59;;;;;;;6.40;4.00;;;;;;;;;;5058123;28;20036;-82
2022/12/26 16:27:25;;;;;;;5.18;3.80;;;;;;;;;;5061463;28;20533;-81
2022/12/26 16:29:55;;;;;;;5.38;3.97;;;;;;;;;;5027600;28;20041;-83
2022/12/26 16:32:24;;;;;;;5.68;4.20;;;;;;;;;;5041406;28;20041;-81
2022/12/26 16:34:52;;;;;;;7.65;4.85;;;;;;;;;;5039693;28;20025;-82
2022/12/26 16:37:21;;;;;;;6.80;4.03;;;;;;;;;;5040167;28;20115;-84
2022/12/26 16:40:05;;;;;;;6.05;3.55;;;;;;;;;;5022706;28;20071;-81
2022/12/26 16:42:31;;;;;;;6.13;3.67;;;;;;;;;;5050860;28;20036;-82
2022/12/26 16:44:56;;;;;;;6.65;4.05;;;;;;;;;;5057183;28;20098;-82
2022/12/26 16:47:22;;;;;;;6.68;4.57;;;;;;;;;;5032456;28;20035;-82
2022/12/26 16:49:47;;;;;;;9.88;4.20;;;;;;;;;;5024999;28;20036;-83
2022/12/26 16:52:33;;;;;;;7.40;4.35;;;;;;;;;;5052806;28;20044;-83
2022/12/26 16:55:19;;;;;;;6.55;4.50;;;;;;;;;;5051946;28;20053;-81
2022/12/26 16:57:45;;;;;;;7.20;4.18;;;;;;;;;;5040310;28;20040;-83
2022/12/26 17:00:18;;;;;;;4.63;3.20;;;;;;;;;;5041404;28;20075;-82
2022/12/26 17:02:44;;;;;;;7.18;4.38;;;;;;;;;;5056775;28;20151;-81
2022/12/26 17:05:19;;;;;;;10.23;4.40;;;;;;;;;;5035043;28;20388;-82
2022/12/26 17:07:45;;;;;;;4.38;3.72;;;;;;;;;;5047269;28;20101;-83
2022/12/26 17:10:27;;;;;;;5.68;3.42;;;;;;;;;;5058268;28;20028;-80
2022/12/26 17:12:53;;;;;;;5.35;3.42;;;;;;;;;;5042920;28;20492;-82
2022/12/26 17:15:25;;;;;;;7.72;4.30;;;;;;;;;;5044061;28;20033;-83
2022/12/26 17:17:51;;;;;;;6.10;3.60;;;;;;;;;;5044908;28;20084;-81
2022/12/26 17:20:23;;;;;;;7.65;3.67;;;;;;;;;;5063250;28;20065;-81
2022/12/26 17:22:49;;;;;;;7.75;4.32;;;;;;;;;;5061931;28;20029;-82
2022/12/26 17:25:20;;;;;;;8.32;4.35;;;;;;;;;;5030900;28;20108;-82
2022/12/26 17:28:06;;;;;;;6.68;3.92;;;;;;;;;;5045832;28;20079;-83
2022/12/26 17:30:32;;;;;;;7.97;4.13;;;;;;;;;;5043464;28;20442;-82
2022/12/26 17:33:04;;;;;;;6.47;3.92;;;;;;;;;;5045519;28;20063;-82
2022/12/26 17:35:30;;;;;;;6.25;4.13;;;;;;;;;;5035361;28;20616;-81
2022/12/26 17:37:58;;;;;;;7.93;4.10;;;;;;;;;;5036842;28;20059;-82
2022/12/26 17:40:33;;;;;;;7.07;4.22;;;;;;;;;;5054384;28;20037;-83
2022/12/26 17:43:05;;;;;;;5.80;3.83;;;;;;;;;;5036200;28;20059;-81
2022/12/26 17:45:30;;;;;;;6.75;4.25;;;;;;;;;;5054098;28;20037;-81
2022/12/26 17:47:56;;;;;;;6.05;3.97;;;;;;;;;;5055023;28;20032;-82
2022/12/26 17:50:22;;;;;;;6.70;4.00;;;;;;;;;;5036076;28;20129;-82
2022/12/26 17:52:58;;;;;;;7.03;4.68;;;;;;;;;;5063531;28;20025;-83
2022/12/26 17:55:24;;;;;;;7.70;4.00;;;;;;;;;;5017954;28;20083;-82
2022/12/26 18:00:36;;;;;;;12.90;6.57;;;;;;;;;;5051190;28;20037;-82
2022/12/26 18:03:01;;;;;;;9.18;5.38;;;;;;;;;;5053505;28;20058;-81
2022/12/26 18:05:30;;;;;;;6.38;4.47;;;;;;;;;;5021775;28;20029;-84
2022/12/26 18:07:56;;;;;;;6.50;4.43;;;;;;;;;;5039642;28;20032;-82
2022/12/26 18:10:22;;;;;;;7.53;4.70;;;;;;;;;;5058916;28;20041;-81
2022/12/26 18:12:47;;;;;;;7.72;5.13;;;;;;;;;;5023477;28;20047;-82